Time;durP1;ratioP1;P1;durP2;ratioP2;P2;SDS_P1;SDS_P2;PMS_P1;PMS_P2;Temp;Humidity;BMP_temperature;BMP_pressure;BME280_temperature;BME280_humidity;BME280_pressure;Samples;Min_cycle;Max_cycle;Signal;HPM_P1;HPM_P2
2021/09/09 00:01:05;;;;;;;27.77;19.15;;;16.70;99.90;;;;;;5115966;28;20053;-69
2021/09/09 00:03:31;;;;;;;32.10;20.63;;;16.70;99.90;;;;;;5115762;28;20031;-69
2021/09/09 00:05:56;;;;;;;29.13;19.42;;;16.70;99.90;;;;;;5115812;28;20494;-69
2021/09/09 00:08:22;;;;;;;26.17;19.80;;;16.60;99.90;;;;;;5115747;28;20027;-70
2021/09/09 00:10:48;;;;;;;31.05;20.67;;;16.60;99.90;;;;;;5097274;28;20034;-70
2021/09/09 00:13:13;;;;;;;28.55;18.95;;;16.60;99.90;;;;;;5115931;28;20031;-69
2021/09/09 00:15:39;;;;;;;28.42;19.05;;;16.60;99.90;;;;;;5097093;28;20027;-69
2021/09/09 00:18:05;;;;;;;25.00;17.80;;;16.60;99.90;;;;;;5097410;28;20023;-69
2021/09/09 00:20:31;;;;;;;28.40;19.98;;;16.50;99.90;;;;;;5115799;28;20027;-69
2021/09/09 00:22:56;;;;;;;27.58;19.85;;;16.50;99.90;;;;;;5115689;28;20115;-69
2021/09/09 00:25:22;;;;;;;29.58;20.80;;;16.40;99.90;;;;;;5115675;28;20479;-70
2021/09/09 00:27:48;;;;;;;31.25;19.77;;;16.30;99.90;;;;;;5115678;28;20024;-70
2021/09/09 00:30:14;;;;;;;31.27;21.45;;;16.30;99.90;;;;;;5097113;28;20062;-70
2021/09/09 00:32:39;;;;;;;27.60;19.83;;;16.30;99.90;;;;;;5097444;28;20469;-69
2021/09/09 00:35:06;;;;;;;31.02;20.92;;;16.30;99.90;;;;;;5080399;28;20031;-69
2021/09/09 00:37:31;;;;;;;32.40;21.92;;;16.30;99.90;;;;;;5115445;28;20027;-69
2021/09/09 00:39:57;;;;;;;31.65;21.58;;;16.20;99.90;;;;;;5096964;28;20096;-69
2021/09/09 00:42:22;;;;;;;29.40;21.45;;;16.20;99.90;;;;;;5114934;28;20055;-69
2021/09/09 00:44:48;;;;;;;31.13;20.60;;;16.20;99.90;;;;;;5115284;28;20045;-69
2021/09/09 00:47:14;;;;;;;29.75;21.45;;;16.00;99.90;;;;;;5114722;28;20028;-69
2021/09/09 00:49:42;;;;;;;30.20;21.25;;;16.00;99.90;;;;;;5115217;28;20030;-69
2021/09/09 00:52:09;;;;;;;32.88;21.95;;;16.00;99.90;;;;;;5114674;28;20027;-69
2021/09/09 00:54:35;;;;;;;33.35;21.63;;;15.90;99.90;;;;;;5096374;28;20038;-69
2021/09/09 00:57:03;;;;;;;36.95;23.80;;;15.90;99.90;;;;;;5096367;28;20103;-69
2021/09/09 00:59:31;;;;;;;31.70;22.00;;;15.90;99.90;;;;;;5096232;28;20447;-69
2021/09/09 01:01:57;;;;;;;30.90;22.08;;;15.90;99.90;;;;;;5114403;28;20031;-69
2021/09/09 01:04:22;;;;;;;34.95;22.85;;;15.90;99.90;;;;;;5096569;28;20027;-69
2021/09/09 01:06:48;;;;;;;37.10;24.35;;;15.80;99.90;;;;;;5114893;28;20030;-69
2021/09/09 01:09:14;;;;;;;32.38;22.42;;;15.80;99.90;;;;;;5114640;28;20023;-69
2021/09/09 01:11:39;;;;;;;30.45;21.48;;;15.80;99.90;;;;;;5114849;28;20027;-69
2021/09/09 01:14:11;;;;;;;33.22;23.75;;;15.80;99.90;;;;;;5114832;28;20473;-69
2021/09/09 01:16:38;;;;;;;30.13;21.92;;;15.70;99.90;;;;;;5095983;28;20024;-69
2021/09/09 01:19:05;;;;;;;35.47;23.85;;;15.70;99.90;;;;;;5114747;28;20106;-69
2021/09/09 01:21:31;;;;;;;33.65;23.67;;;15.70;99.90;;;;;;5114118;28;20026;-69
2021/09/09 01:23:58;;;;;;;32.20;21.90;;;15.70;99.90;;;;;;5096395;28;20035;-69
2021/09/09 01:26:27;;;;;;;36.95;24.95;;;15.60;99.90;;;;;;5114638;28;20488;-69
2021/09/09 01:28:53;;;;;;;38.95;24.55;;;15.60;99.90;;;;;;5114621;28;20460;-69
2021/09/09 01:31:19;;;;;;;32.63;23.58;;;15.60;99.90;;;;;;5114320;28;20065;-69
2021/09/09 01:33:45;;;;;;;36.70;24.88;;;15.60;99.90;;;;;;5114598;28;20027;-69
2021/09/09 01:36:10;;;;;;;34.10;24.13;;;15.60;99.90;;;;;;5114545;28;20350;-69
2021/09/09 01:38:36;;;;;;;38.88;24.40;;;15.60;99.90;;;;;;5114538;28;20028;-69
2021/09/09 01:41:03;;;;;;;41.88;25.35;;;15.60;99.90;;;;;;5114493;28;20028;-69
2021/09/09 01:43:30;;;;;;;35.22;24.75;;;15.60;99.90;;;;;;5095400;28;20408;-69
2021/09/09 01:45:55;;;;;;;34.30;24.90;;;15.50;99.90;;;;;;5114414;28;20011;-69
2021/09/09 01:48:21;;;;;;;35.33;24.58;;;15.50;99.90;;;;;;5114424;28;20505;-69
2021/09/09 01:50:46;;;;;;;39.80;26.48;;;15.50;99.90;;;;;;5114388;28;20556;-69
2021/09/09 01:53:12;;;;;;;34.70;24.02;;;15.50;99.90;;;;;;5095919;28;20110;-69
2021/09/09 01:55:37;;;;;;;39.15;24.73;;;15.40;99.90;;;;;;5114356;28;20039;-69
2021/09/09 01:58:03;;;;;;;37.88;25.42;;;15.40;99.90;;;;;;5114323;28;20098;-69
2021/09/09 02:00:28;;;;;;;36.13;24.58;;;15.40;99.90;;;;;;5114273;28;20099;-69
2021/09/09 02:02:54;;;;;;;36.00;24.70;;;15.40;99.90;;;;;;5114214;28;20032;-69
2021/09/09 02:05:19;;;;;;;32.70;24.70;;;15.30;99.90;;;;;;5099552;28;20023;-69
2021/09/09 02:07:45;;;;;;;44.53;27.23;;;15.30;99.90;;;;;;5118384;28;20023;-69
2021/09/09 02:10:11;;;;;;;43.40;27.48;;;15.30;99.90;;;;;;5118068;28;20031;-69
2021/09/09 02:12:36;;;;;;;39.42;26.95;;;15.20;99.90;;;;;;5118042;28;20043;-69
2021/09/09 02:15:03;;;;;;;34.00;24.65;;;15.20;99.90;;;;;;5118228;28;20028;-69
2021/09/09 02:17:28;;;;;;;38.25;27.05;;;15.10;99.90;;;;;;5100232;28;20024;-70
2021/09/09 02:19:54;;;;;;;40.47;27.40;;;15.10;99.90;;;;;;5117873;28;20430;-69
2021/09/09 02:22:19;;;;;;;41.47;26.38;;;15.00;99.90;;;;;;5117752;28;20302;-69
2021/09/09 02:24:45;;;;;;;45.17;28.92;;;15.00;99.90;;;;;;5118046;28;20472;-69
2021/09/09 02:27:15;;;;;;;45.15;28.48;;;14.90;99.90;;;;;;5117743;28;20411;-70
2021/09/09 02:29:42;;;;;;;44.30;28.42;;;14.90;99.90;;;;;;5082763;28;20431;-70
2021/09/09 02:32:08;;;;;;;40.45;27.85;;;14.90;99.90;;;;;;5117926;28;20062;-69
2021/09/09 02:34:35;;;;;;;41.38;27.50;;;14.90;99.90;;;;;;5099462;28;20055;-69
2021/09/09 02:37:00;;;;;;;40.05;27.00;;;14.90;99.90;;;;;;5099567;28;20428;-69
2021/09/09 02:39:26;;;;;;;38.88;27.33;;;14.90;99.90;;;;;;5117797;28;20058;-69
2021/09/09 02:41:51;;;;;;;41.40;26.90;;;14.90;99.90;;;;;;5117428;28;20373;-69
2021/09/09 02:44:17;;;;;;;44.08;27.33;;;14.80;99.90;;;;;;5081930;28;20024;-69
2021/09/09 02:46:43;;;;;;;43.08;28.02;;;14.90;99.90;;;;;;5117357;28;20047;-69
2021/09/09 02:49:08;;;;;;;42.38;28.00;;;14.80;99.90;;;;;;5117610;28;20016;-69
2021/09/09 02:51:34;;;;;;;40.30;27.40;;;14.70;99.90;;;;;;5117545;28;20028;-69
2021/09/09 02:53:59;;;;;;;43.85;28.23;;;14.70;99.90;;;;;;5117540;28;20031;-69
2021/09/09 02:56:25;;;;;;;40.53;28.77;;;14.70;99.90;;;;;;5098969;28;20460;-69
2021/09/09 02:58:50;;;;;;;44.60;29.30;;;14.60;99.90;;;;;;5117379;28;20042;-69
2021/09/09 03:01:16;;;;;;;48.85;29.60;;;14.60;99.90;;;;;;5117368;28;20024;-69
2021/09/09 03:03:41;;;;;;;45.05;29.48;;;14.60;99.90;;;;;;5116665;28;20030;-69
2021/09/09 03:06:07;;;;;;;46.88;31.52;;;14.60;99.90;;;;;;5117247;28;20414;-69
2021/09/09 03:08:32;;;;;;;39.67;28.95;;;14.60;99.90;;;;;;5117207;28;20070;-69
2021/09/09 03:10:58;;;;;;;41.58;29.02;;;14.50;99.90;;;;;;5099021;28;20110;-69
2021/09/09 03:13:24;;;;;;;42.03;29.95;;;14.50;99.90;;;;;;5081443;28;20027;-69
2021/09/09 03:15:50;;;;;;;37.60;26.33;;;14.60;99.90;;;;;;5116329;28;20031;-69
2021/09/09 03:18:15;;;;;;;44.55;29.92;;;14.50;99.90;;;;;;5116785;28;20030;-69
2021/09/09 03:20:41;;;;;;;45.42;28.90;;;14.50;99.90;;;;;;5116986;28;20369;-69
2021/09/09 03:23:07;;;;;;;39.85;27.85;;;14.40;99.90;;;;;;5116846;28;20024;-69
2021/09/09 03:25:32;;;;;;;43.63;31.10;;;14.30;99.90;;;;;;5116916;28;20012;-69
2021/09/09 03:27:59;;;;;;;46.50;31.00;;;14.40;99.90;;;;;;5116285;28;20035;-69
2021/09/09 03:30:25;;;;;;;44.90;30.77;;;14.40;99.90;;;;;;5098308;28;20022;-70
2021/09/09 03:32:50;;;;;;;45.17;31.65;;;14.50;99.90;;;;;;5081136;28;20106;-69
2021/09/09 03:35:16;;;;;;;44.90;30.63;;;14.50;99.90;;;;;;5116695;28;20039;-69
2021/09/09 03:37:41;;;;;;;44.50;30.65;;;14.50;99.90;;;;;;5116379;28;20028;-70
2021/09/09 03:40:07;;;;;;;44.65;30.40;;;14.50;99.90;;;;;;5098184;28;20034;-69
2021/09/09 03:42:33;;;;;;;48.58;29.92;;;14.50;99.90;;;;;;5115901;28;20051;-69
2021/09/09 03:44:59;;;;;;;45.40;30.48;;;14.50;99.90;;;;;;5116526;28;20410;-69
2021/09/09 03:47:24;;;;;;;43.15;30.58;;;14.40;99.90;;;;;;5116192;28;20047;-69
2021/09/09 03:49:50;;;;;;;47.10;31.45;;;14.40;99.90;;;;;;5116418;28;20069;-69
2021/09/09 03:52:15;;;;;;;47.22;31.65;;;14.40;99.90;;;;;;5116104;28;20058;-69
2021/09/09 03:54:41;;;;;;;47.33;32.35;;;14.40;99.90;;;;;;5116070;28;20023;-69
2021/09/09 03:57:06;;;;;;;45.85;31.50;;;14.40;99.90;;;;;;5116016;28;20104;-69
2021/09/09 03:59:32;;;;;;;44.67;30.00;;;14.30;99.90;;;;;;5116238;28;20103;-69
2021/09/09 04:01:59;;;;;;;48.30;31.55;;;14.30;99.90;;;;;;5116147;28;20493;-69
2021/09/09 04:04:25;;;;;;;46.78;31.10;;;14.40;99.90;;;;;;5116135;28;20020;-69
2021/09/09 04:06:50;;;;;;;48.70;32.08;;;14.40;99.90;;;;;;5116032;28;20475;-69
2021/09/09 04:09:16;;;;;;;49.55;33.45;;;14.30;99.90;;;;;;5115974;28;20031;-68
2021/09/09 04:11:41;;;;;;;48.25;32.10;;;14.30;99.90;;;;;;5115654;28;20024;-69
2021/09/09 04:14:07;;;;;;;50.30;32.58;;;14.30;99.90;;;;;;5115650;28;20023;-69
2021/09/09 04:16:32;;;;;;;51.67;32.30;;;14.40;99.90;;;;;;5115865;28;20016;-70
2021/09/09 04:18:58;;;;;;;47.00;31.08;;;14.40;99.90;;;;;;5115870;28;20035;-70
2021/09/09 04:21:24;;;;;;;40.40;28.38;;;14.30;99.90;;;;;;5115821;28;20020;-70
2021/09/09 04:23:49;;;;;;;45.65;31.15;;;14.30;99.90;;;;;;5115666;28;20028;-70
2021/09/09 04:26:15;;;;;;;45.40;31.30;;;14.30;99.90;;;;;;5114862;28;20072;-70
2021/09/09 04:28:40;;;;;;;48.35;32.03;;;14.30;99.90;;;;;;5097220;28;20023;-70
2021/09/09 04:31:06;;;;;;;42.08;29.55;;;14.20;99.90;;;;;;5115332;28;20027;-70
2021/09/09 04:33:31;;;;;;;42.92;28.92;;;14.20;99.90;;;;;;5115522;28;20472;-70
2021/09/09 04:35:57;;;;;;;46.83;31.27;;;14.10;99.90;;;;;;5115497;28;20032;-70
2021/09/09 04:38:22;;;;;;;46.13;31.58;;;14.10;99.90;;;;;;5115435;28;20024;-70
2021/09/09 04:40:48;;;;;;;51.88;33.45;;;14.10;99.90;;;;;;5115135;28;20114;-70
2021/09/09 04:43:13;;;;;;;49.33;33.03;;;14.10;99.90;;;;;;5096648;28;20039;-70
2021/09/09 04:45:39;;;;;;;50.22;32.28;;;14.10;99.90;;;;;;5096570;28;20024;-70
2021/09/09 04:48:05;;;;;;;44.90;31.80;;;14.10;99.90;;;;;;5115038;28;20392;-70
2021/09/09 04:50:30;;;;;;;49.97;33.45;;;14.10;99.90;;;;;;5115008;28;20425;-70
2021/09/09 04:52:56;;;;;;;51.42;32.88;;;14.10;99.90;;;;;;5115041;28;20076;-70
2021/09/09 04:55:21;;;;;;;42.28;30.35;;;14.10;99.90;;;;;;5114569;28;20030;-70
2021/09/09 04:57:47;;;;;;;49.95;31.38;;;14.10;99.90;;;;;;5115101;28;20062;-70
2021/09/09 05:00:13;;;;;;;49.90;33.28;;;14.00;99.90;;;;;;5115025;28;20103;-70
2021/09/09 05:02:38;;;;;;;52.15;31.10;;;14.10;99.90;;;;;;5114655;28;20020;-70
2021/09/09 05:05:04;;;;;;;45.10;31.67;;;14.10;99.90;;;;;;5096183;28;20031;-70
2021/09/09 05:07:29;;;;;;;43.55;29.73;;;14.10;99.90;;;;;;5114453;28;20016;-70
2021/09/09 05:09:55;;;;;;;42.15;29.02;;;14.10;99.90;;;;;;5114583;28;20024;-70
2021/09/09 05:12:21;;;;;;;48.72;31.27;;;14.10;99.90;;;;;;5114835;28;20091;-70
2021/09/09 05:14:46;;;;;;;42.65;29.55;;;14.10;99.90;;;;;;5114272;28;20028;-70
2021/09/09 05:17:12;;;;;;;45.53;31.20;;;14.10;99.90;;;;;;5114540;28;20032;-70
2021/09/09 05:19:37;;;;;;;44.78;31.20;;;14.20;99.90;;;;;;5114381;28;20024;-70
2021/09/09 05:22:03;;;;;;;43.60;30.33;;;14.30;99.90;;;;;;5114665;28;20071;-70
2021/09/09 05:24:29;;;;;;;41.38;29.73;;;14.30;99.90;;;;;;5096232;28;20023;-70
2021/09/09 05:26:54;;;;;;;34.30;26.15;;;14.40;99.90;;;;;;5114624;28;20479;-70
2021/09/09 05:29:22;;;;;;;38.83;27.45;;;14.50;99.90;;;;;;5114640;28;20039;-70
2021/09/09 05:31:48;;;;;;;36.58;27.10;;;14.50;99.90;;;;;;5114040;28;20046;-70
2021/09/09 05:34:14;;;;;;;43.53;29.42;;;14.50;99.90;;;;;;5095857;28;20028;-70
2021/09/09 05:36:39;;;;;;;37.40;27.00;;;14.60;99.90;;;;;;5113980;28;20031;-70
2021/09/09 05:39:05;;;;;;;39.95;27.27;;;14.70;99.90;;;;;;5114333;28;20032;-70
2021/09/09 05:41:30;;;;;;;37.95;26.20;;;14.80;99.90;;;;;;5114149;28;20030;-70
2021/09/09 05:43:56;;;;;;;36.05;26.17;;;14.90;99.90;;;;;;5092167;28;20044;-70
2021/09/09 05:46:21;;;;;;;37.17;24.73;;;15.30;99.90;;;;;;5094087;28;20028;-70
2021/09/09 05:48:47;;;;;;;32.30;23.02;;;15.90;99.90;;;;;;5092836;28;20111;-71
2021/09/09 05:51:12;;;;;;;27.25;20.02;;;17.00;99.90;;;;;;5093983;28;20477;-70
2021/09/09 05:53:38;;;;;;;27.75;20.38;;;18.00;99.90;;;;;;5092422;28;20036;-70
2021/09/09 05:56:04;;;;;;;27.48;19.08;;;18.60;99.90;;;;;;5092747;28;20401;-71
2021/09/09 05:58:29;;;;;;;26.70;19.05;;;19.40;99.90;;;;;;5093966;28;20020;-70
2021/09/09 06:00:55;;;;;;;23.90;18.10;;;20.10;99.90;;;;;;5092820;28;20024;-71
2021/09/09 06:03:25;;;;;;;23.08;18.45;;;20.70;99.90;;;;;;5093196;28;20036;-70
2021/09/09 06:05:53;;;;;;;26.10;19.10;;;20.60;99.90;;;;;;5093889;28;20024;-70
2021/09/09 06:08:19;;;;;;;25.30;18.80;;;20.10;99.90;;;;;;5093874;28;20024;-70
2021/09/09 06:10:45;;;;;;;30.27;19.92;;;19.50;99.90;;;;;;5093273;28;20495;-70
2021/09/09 06:13:11;;;;;;;27.63;19.60;;;19.20;99.90;;;;;;5093514;28;20107;-70
2021/09/09 06:15:36;;;;;;;23.25;19.05;;;19.30;99.90;;;;;;5091898;28;20111;-70
2021/09/09 06:18:02;;;;;;;28.55;19.38;;;19.40;99.90;;;;;;5092324;28;20084;-70
2021/09/09 06:20:28;;;;;;;26.40;18.52;;;19.50;99.90;;;;;;5070762;28;20021;-70
2021/09/09 06:22:53;;;;;;;26.75;19.20;;;20.30;99.90;;;;;;5072855;28;20032;-70
2021/09/09 06:25:19;;;;;;;23.48;17.88;;;21.20;99.90;;;;;;5071966;28;20036;-70
2021/09/09 06:27:45;;;;;;;22.85;17.60;;;22.60;99.90;;;;;;5073147;28;20591;-70
2021/09/09 06:30:12;;;;;;;19.60;16.83;;;22.70;99.90;;;;;;5072908;28;20028;-71
2021/09/09 06:32:37;;;;;;;20.95;16.92;;;23.60;99.90;;;;;;5072676;28;20386;-71
2021/09/09 06:35:03;;;;;;;25.50;16.98;;;23.80;99.90;;;;;;5073191;28;20032;-71
2021/09/09 06:37:29;;;;;;;26.35;16.73;;;23.60;99.90;;;;;;5073306;28;20032;-70
2021/09/09 06:39:54;;;;;;;21.65;15.77;;;24.50;99.90;;;;;;5073294;28;20466;-70
2021/09/09 06:42:22;;;;;;;21.63;16.17;;;25.60;99.90;;;;;;5081994;28;20422;-71
2021/09/09 06:44:48;;;;;;;22.35;15.93;;;26.20;99.90;;;;;;5113007;28;20059;-70
2021/09/09 06:47:14;;;;;;;21.73;15.50;;;25.60;99.90;;;;;;5108449;28;20451;-71
2021/09/09 06:49:39;;;;;;;19.80;15.68;;;25.00;99.90;;;;;;5082899;28;20024;-71
2021/09/09 06:52:05;;;;;;;25.98;16.38;;;25.50;99.90;;;;;;5115125;28;20024;-71
2021/09/09 06:54:30;;;;;;;20.55;15.50;;;26.20;99.90;;;;;;5115764;28;20023;-71
2021/09/09 06:56:56;;;;;;;20.70;15.70;;;25.90;99.90;;;;;;5094633;28;20020;-71
2021/09/09 06:59:21;;;;;;;20.10;15.85;;;26.60;99.90;;;;;;5097350;28;20020;-71
2021/09/09 07:01:47;;;;;;;22.15;15.95;;;26.40;99.90;;;;;;5095943;28;20389;-71
2021/09/09 07:04:12;;;;;;;23.40;15.82;;;27.30;99.90;;;;;;5090935;28;20031;-71
2021/09/09 07:06:38;;;;;;;20.83;15.25;;;26.80;99.90;;;;;;5101645;28;20165;-71
2021/09/09 07:09:03;;;;;;;21.40;15.70;;;26.90;99.90;;;;;;5112594;28;20015;-71
2021/09/09 07:11:29;;;;;;;22.40;14.68;;;26.40;99.90;;;;;;5097959;28;20401;-71
2021/09/09 07:13:54;;;;;;;19.63;14.90;;;26.90;99.90;;;;;;5096464;28;20028;-71
2021/09/09 07:16:20;;;;;;;18.33;14.40;;;27.20;99.90;;;;;;5078799;28;20020;-71
2021/09/09 07:18:45;;;;;;;20.77;14.15;;;27.70;99.90;;;;;;5096079;28;20503;-71
2021/09/09 07:21:12;;;;;;;15.70;13.43;;;28.10;99.90;;;;;;5102886;28;20031;-71
2021/09/09 07:23:37;;;;;;;17.58;13.30;;;27.30;99.90;;;;;;5111617;28;20488;-71
2021/09/09 07:26:03;;;;;;;16.63;14.60;;;28.20;99.90;;;;;;5099567;28;20024;-71
2021/09/09 07:28:28;;;;;;;17.63;14.13;;;28.30;99.90;;;;;;5109038;28;20027;-71
2021/09/09 07:30:54;;;;;;;15.75;13.93;;;27.80;99.90;;;;;;5094303;28;21269;-71
2021/09/09 07:33:20;;;;;;;22.08;13.10;;;27.60;99.90;;;;;;5095692;28;20091;-71
2021/09/09 07:35:45;;;;;;;15.25;13.30;;;27.70;99.90;;;;;;5115706;28;20035;-71
2021/09/09 07:38:11;;;;;;;14.13;12.63;;;28.80;99.60;;;;;;5116209;28;20112;-71
2021/09/09 07:40:37;;;;;;;20.13;12.30;;;28.50;99.10;;;;;;5113999;28;20032;-71
2021/09/09 07:43:02;;;;;;;17.02;13.38;;;28.80;98.80;;;;;;5108321;28;20400;-71
2021/09/09 07:45:29;;;;;;;14.93;12.15;;;28.50;99.30;;;;;;5086100;28;20019;-71
2021/09/09 07:47:54;;;;;;;13.45;12.02;;;29.30;98.00;;;;;;5115979;28;20016;-71
2021/09/09 07:50:20;;;;;;;16.98;11.70;;;28.80;98.20;;;;;;5115681;28;20026;-72
2021/09/09 07:52:45;;;;;;;35.38;13.05;;;27.90;98.30;;;;;;5113935;28;20148;-72
2021/09/09 07:55:11;;;;;;;16.55;12.43;;;28.00;99.20;;;;;;5115291;28;20034;-71
2021/09/09 07:57:37;;;;;;;16.48;11.70;;;28.20;98.60;;;;;;5079128;28;20032;-71
2021/09/09 08:00:04;;;;;;;13.80;11.32;;;28.60;98.80;;;;;;5110699;28;20034;-71
2021/09/09 08:02:30;;;;;;;12.43;11.07;;;28.60;99.20;;;;;;5111917;28;20032;-71
2021/09/09 08:04:55;;;;;;;16.02;11.40;;;29.00;97.50;;;;;;5115433;28;20099;-71
2021/09/09 08:07:21;;;;;;;17.45;11.85;;;28.90;97.90;;;;;;5091858;28;20378;-71
2021/09/09 08:09:46;;;;;;;13.73;11.90;;;29.60;95.70;;;;;;5115271;28;20020;-71
2021/09/09 08:12:12;;;;;;;15.45;11.82;;;29.80;96.00;;;;;;5102179;28;20115;-71
2021/09/09 08:14:37;;;;;;;15.30;11.25;;;30.30;94.80;;;;;;5094903;28;20063;-71
2021/09/09 08:17:03;;;;;;;13.30;10.85;;;30.80;94.60;;;;;;5077703;28;20051;-71
2021/09/09 08:19:29;;;;;;;16.40;11.80;;;30.40;95.30;;;;;;5094488;28;20020;-71
2021/09/09 08:21:55;;;;;;;15.80;11.80;;;29.70;95.30;;;;;;5099684;28;20035;-71
2021/09/09 08:24:20;;;;;;;13.95;11.45;;;28.60;96.50;;;;;;5098052;28;20118;-71
2021/09/09 08:26:46;;;;;;;15.93;12.25;;;29.60;97.30;;;;;;5102355;28;20024;-71
2021/09/09 08:29:11;;;;;;;16.73;12.13;;;29.10;96.20;;;;;;5114174;28;20381;-71
2021/09/09 08:31:37;;;;;;;20.85;12.40;;;28.50;97.60;;;;;;5114486;28;20389;-71
2021/09/09 08:34:02;;;;;;;13.52;12.10;;;28.50;96.90;;;;;;5096682;28;20377;-71
2021/09/09 08:36:28;;;;;;;16.38;11.30;;;28.90;96.70;;;;;;5096469;28;20027;-71
2021/09/09 08:38:53;;;;;;;18.67;11.88;;;30.00;95.40;;;;;;5114687;28;20541;-71
2021/09/09 08:41:19;;;;;;;13.73;10.90;;;29.50;95.90;;;;;;5098695;28;20494;-71
2021/09/09 08:43:45;;;;;;;16.90;11.52;;;30.20;94.70;;;;;;5114187;28;20044;-71
2021/09/09 08:46:12;;;;;;;13.00;11.20;;;30.60;94.20;;;;;;5099521;28;20043;-71
2021/09/09 08:48:39;;;;;;;14.75;11.43;;;30.80;93.80;;;;;;5107387;28;20453;-71
2021/09/09 08:51:05;;;;;;;14.65;11.88;;;31.20;93.80;;;;;;5099791;28;20070;-71
2021/09/09 08:53:31;;;;;;;18.25;12.10;;;30.50;94.10;;;;;;5093225;28;20136;-71
2021/09/09 08:55:56;;;;;;;15.45;11.25;;;30.20;94.70;;;;;;5083776;28;20023;-71
2021/09/09 08:58:22;;;;;;;16.95;11.75;;;29.40;95.50;;;;;;5096937;28;20371;-71
2021/09/09 09:01:12;;;;;;;13.75;10.98;;;29.20;96.20;;;;;;5085842;28;20555;-71
2021/09/09 09:03:55;;;;;;;16.75;10.82;;;29.20;96.10;;;;;;5107373;28;20024;-71
2021/09/09 09:11:44;;;;;;;22.70;11.10;;;30.80;93.70;;;;;;5089742;28;20418;-70
2021/09/09 09:14:11;;;;;;;19.85;11.45;;;30.00;95.40;;;;;;5082909;28;20057;-70
2021/09/09 09:16:44;;;;;;;20.90;10.80;;;29.40;95.90;;;;;;5083370;28;20027;-70
2021/09/09 09:19:11;;;;;;;23.05;10.52;;;29.60;97.20;;;;;;5079048;28;20410;-70
2021/09/09 09:21:41;;;;;;;17.92;11.25;;;30.00;96.30;;;;;;5070147;28;20037;-70
2021/09/09 09:24:08;;;;;;;51.72;13.57;;;29.90;96.70;;;;;;5079610;28;20028;-70
2021/09/09 09:26:33;;;;;;;17.08;11.18;;;30.20;95.70;;;;;;5081284;28;20029;-70
2021/09/09 09:29:00;;;;;;;15.07;10.07;;;30.10;95.20;;;;;;5060965;28;20092;-70
2021/09/09 09:31:29;;;;;;;15.07;10.50;;;29.80;96.50;;;;;;5070231;28;20035;-70
2021/09/09 09:33:57;;;;;;;16.25;10.60;;;29.90;96.90;;;;;;5069701;28;20078;-70
2021/09/09 09:39:11;;;;;;;13.25;10.13;;;29.60;95.50;;;;;;5110878;27;20754;-71
2021/09/09 09:41:39;;;;;;;16.20;10.90;;;29.30;97.00;;;;;;5110315;28;20066;-72
2021/09/09 09:44:08;;;;;;;21.75;11.30;;;28.80;96.60;;;;;;5110738;28;20028;-71
2021/09/09 09:46:37;;;;;;;14.75;10.10;;;28.80;96.30;;;;;;5108955;28;20071;-71
2021/09/09 09:49:25;;;;;;;14.98;10.60;;;28.60;97.10;;;;;;5111041;28;20015;-71
2021/09/09 09:51:52;;;;;;;13.52;10.40;;;28.50;97.00;;;;;;5110555;28;20035;-71
2021/09/09 09:54:20;;;;;;;16.35;10.63;;;28.50;96.80;;;;;;5110841;28;20020;-71
2021/09/09 09:56:47;;;;;;;13.95;9.52;;;28.60;97.50;;;;;;5110125;28;20034;-71
2021/09/09 09:59:13;;;;;;;14.02;9.98;;;29.30;97.10;;;;;;5109802;28;20020;-71
2021/09/09 10:01:40;;;;;;;13.35;10.25;;;29.60;97.20;;;;;;5110383;28;20103;-69
2021/09/09 10:04:08;;;;;;;17.33;9.98;;;29.70;95.60;;;;;;5109990;28;20426;-69
2021/09/09 10:06:35;;;;;;;64.95;13.50;;;29.70;96.30;;;;;;5110312;28;20020;-69
2021/09/09 10:09:03;;;;;;;38.55;11.32;;;30.50;95.10;;;;;;5110155;28;20020;-69
2021/09/09 10:11:29;;;;;;;16.08;9.95;;;31.00;94.40;;;;;;5109946;28;20035;-69
2021/09/09 10:13:57;;;;;;;11.90;9.70;;;31.30;93.70;;;;;;5110149;28;20024;-69
2021/09/09 10:16:24;;;;;;;14.52;9.43;;;31.90;93.10;;;;;;5110616;28;20098;-70
2021/09/09 10:18:50;;;;;;;14.27;9.57;;;32.40;92.30;;;;;;5110045;28;20046;-69
2021/09/09 10:21:40;;;;;;;23.15;10.07;;;32.10;92.20;;;;;;5110131;28;20035;-70
2021/09/09 10:24:17;;;;;;;14.65;9.93;;;30.80;93.50;;;;;;5109434;28;20033;-69
2021/09/09 10:26:43;;;;;;;15.63;9.75;;;30.60;93.90;;;;;;5110014;28;20023;-69
2021/09/09 10:29:44;;;;;;;15.90;9.80;;;30.80;93.90;;;;;;5109769;28;20016;-69
2021/09/09 10:35:26;;;;;;;13.23;9.65;;;30.60;93.40;;;;;;5110908;27;20354;-68
2021/09/09 10:37:54;;;;;;;14.60;9.38;;;30.50;95.00;;;;;;5110953;28;20081;-68
2021/09/09 10:40:37;;;;;;;15.65;10.02;;;30.90;94.80;;;;;;5110650;28;20027;-68
2021/09/09 10:46:08;;;;;;;11.23;8.93;;;30.60;93.70;;;;;;5111050;27;20751;-72
2021/09/09 10:48:33;;;;;;;12.68;8.57;;;31.00;92.30;;;;;;5090600;28;20044;-73
2021/09/09 10:51:04;;;;;;;12.57;8.82;;;30.70;92.00;;;;;;5090323;28;20024;-73
2021/09/09 10:53:42;;;;;;;13.60;8.93;;;30.40;92.00;;;;;;5090375;28;20031;-73
2021/09/09 10:56:17;;;;;;;15.68;9.27;;;30.60;92.80;;;;;;5104714;28;20035;-73
2021/09/09 10:58:43;;;;;;;14.50;8.90;;;30.60;92.90;;;;;;5109439;28;20035;-73
2021/09/09 11:01:10;;;;;;;11.98;9.70;;;30.30;92.70;;;;;;5107352;28;20069;-73
2021/09/09 11:03:43;;;;;;;16.73;9.23;;;30.40;93.00;;;;;;5109295;28;20028;-73
2021/09/09 11:06:10;;;;;;;;;;;29.80;92.30;;;;;;5096789;28;20380;-72
2021/09/09 11:08:37;;;;;;;12.60;9.73;;;29.50;94.10;;;;;;5099325;28;19908;-72
2021/09/09 11:11:04;;;;;;;18.30;9.02;;;29.70;95.30;;;;;;5109786;28;20126;-73
2021/09/09 11:13:32;;;;;;;14.90;9.27;;;30.20;95.10;;;;;;5107435;28;20020;-72
2021/09/09 11:15:58;;;;;;;12.90;9.43;;;29.80;94.40;;;;;;5110775;28;20062;-72
2021/09/09 11:18:27;;;;;;;13.82;9.88;;;29.70;94.10;;;;;;5104184;28;20036;-72
2021/09/09 11:21:10;;;;;;;17.17;9.73;;;30.10;94.20;;;;;;5090494;28;20443;-72
2021/09/09 11:23:36;;;;;;;17.50;9.02;;;30.10;94.90;;;;;;5091412;28;20028;-72
2021/09/09 11:26:11;;;;;;;16.35;10.10;;;30.10;95.20;;;;;;5106444;28;20051;-72
2021/09/09 11:28:38;;;;;;;12.27;9.50;;;30.30;93.90;;;;;;5108738;28;20016;-69
2021/09/09 11:33:55;;;;;;;13.82;9.63;;;30.10;95.70;;;;;;5110612;27;20366;-68
2021/09/09 11:36:25;;;;;;;14.55;9.73;;;30.30;95.50;;;;;;5110956;28;20016;-69
2021/09/09 11:38:52;;;;;;;18.67;10.23;;;30.00;94.40;;;;;;5100833;28;20021;-70
2021/09/09 11:41:20;;;;;;;15.15;9.85;;;29.60;95.30;;;;;;5090609;28;20081;-70
2021/09/09 11:43:51;;;;;;;13.20;9.70;;;29.80;94.60;;;;;;5092060;28;20059;-70
2021/09/09 11:46:36;;;;;;;10.38;9.20;;;29.70;95.30;;;;;;5090836;28;20060;-70
2021/09/09 11:49:04;;;;;;;15.40;10.27;;;29.90;94.80;;;;;;5100598;28;20024;-70
2021/09/09 11:51:36;;;;;;;14.10;9.45;;;29.90;95.70;;;;;;5108629;28;20024;-70
2021/09/09 11:54:04;;;;;;;14.02;9.27;;;29.90;95.00;;;;;;5093122;28;20445;-69
2021/09/09 11:56:30;;;;;;;10.43;7.97;;;29.70;95.30;;;;;;5091769;28;20052;-69
2021/09/09 11:58:58;;;;;;;13.73;8.60;;;30.00;95.40;;;;;;5110847;28;20358;-69
2021/09/09 12:01:24;;;;;;;10.82;7.90;;;29.60;94.70;;;;;;5109276;28;20027;-69
2021/09/09 12:03:50;;;;;;;12.10;8.82;;;30.20;94.90;;;;;;5089761;28;20054;-69
2021/09/09 12:06:18;;;;;;;13.57;9.60;;;30.30;94.60;;;;;;5090038;28;20027;-70
2021/09/09 12:08:45;;;;;;;10.25;8.13;;;30.20;94.90;;;;;;5091036;28;20101;-70
2021/09/09 12:11:13;;;;;;;11.30;8.25;;;30.30;95.50;;;;;;5090048;28;20028;-70
2021/09/09 12:13:40;;;;;;;10.13;8.63;;;30.50;95.80;;;;;;5096693;28;20024;-70
2021/09/09 12:16:11;;;;;;;12.20;8.68;;;30.00;94.60;;;;;;5092408;28;20020;-69
2021/09/09 12:18:36;;;;;;;10.50;8.60;;;29.90;95.50;;;;;;5090986;28;20013;-69
2021/09/09 12:21:12;;;;;;;13.15;8.70;;;29.90;95.60;;;;;;5109174;28;20099;-69
2021/09/09 12:23:38;;;;;;;10.23;8.38;;;30.10;96.00;;;;;;5110492;28;20024;-69
2021/09/09 12:26:18;;;;;;;13.15;8.55;;;30.10;95.90;;;;;;5107039;28;20039;-69
2021/09/09 12:28:44;;;;;;;15.13;8.80;;;29.60;95.70;;;;;;5109778;28;20059;-70
2021/09/09 12:31:10;;;;;;;12.88;9.05;;;29.40;96.10;;;;;;5094458;28;20075;-69
2021/09/09 12:33:39;;;;;;;12.32;8.73;;;29.50;97.30;;;;;;5089302;28;20139;-70
2021/09/09 12:36:18;;;;;;;13.82;8.60;;;29.40;96.20;;;;;;5103542;28;20094;-70
2021/09/09 12:38:47;;;;;;;15.32;8.73;;;29.70;96.30;;;;;;5096312;28;20032;-69
2021/09/09 12:41:27;;;;;;;11.77;8.35;;;29.60;95.90;;;;;;5089232;28;20070;-70
2021/09/09 12:44:08;;;;;;;9.68;8.73;;;29.40;96.40;;;;;;5083327;28;20039;-69